sensor_id;sensor_type;location;lat;lon;timestamp;P1;durP1;ratioP1;P2;durP2;ratioP2
24631;SDS011;59977;48.782;9.190;2023-02-13T00:00:29;28.83;;;13.02;;
24631;SDS011;59977;48.782;9.190;2023-02-13T00:02:54;28.60;;;13.57;;
24631;SDS011;59977;48.782;9.190;2023-02-13T00:05:20;26.80;;;13.23;;
24631;SDS011;59977;48.782;9.190;2023-02-13T00:07:46;24.70;;;13.70;;
24631;SDS011;59977;48.782;9.190;2023-02-13T00:10:11;22.92;;;14.15;;
24631;SDS011;59977;48.782;9.190;2023-02-13T00:12:37;25.23;;;13.95;;
24631;SDS011;59977;48.782;9.190;2023-02-13T00:15:03;28.55;;;14.68;;
24631;SDS011;59977;48.782;9.190;2023-02-13T00:17:29;25.75;;;14.52;;
24631;SDS011;59977;48.782;9.190;2023-02-13T00:19:55;31.70;;;14.95;;
24631;SDS011;59977;48.782;9.190;2023-02-13T00:22:20;24.70;;;13.98;;
24631;SDS011;59977;48.782;9.190;2023-02-13T00:24:46;26.02;;;14.18;;
24631;SDS011;59977;48.782;9.190;2023-02-13T00:27:12;24.17;;;13.48;;
24631;SDS011;59977;48.782;9.190;2023-02-13T00:29:37;30.25;;;15.13;;
24631;SDS011;59977;48.782;9.190;2023-02-13T00:32:03;27.85;;;15.35;;
24631;SDS011;59977;48.782;9.190;2023-02-13T00:34:29;29.83;;;15.35;;
24631;SDS011;59977;48.782;9.190;2023-02-13T00:36:54;28.95;;;15.23;;
24631;SDS011;59977;48.782;9.190;2023-02-13T00:39:20;27.42;;;14.60;;
24631;SDS011;59977;48.782;9.190;2023-02-13T00:41:45;29.20;;;15.65;;
24631;SDS011;59977;48.782;9.190;2023-02-13T00:44:11;33.33;;;16.08;;
24631;SDS011;59977;48.782;9.190;2023-02-13T00:46:37;30.63;;;16.40;;
24631;SDS011;59977;48.782;9.190;2023-02-13T00:49:02;41.13;;;17.05;;
24631;SDS011;59977;48.782;9.190;2023-02-13T00:51:28;28.73;;;15.63;;
24631;SDS011;59977;48.782;9.190;2023-02-13T00:53:54;41.88;;;18.95;;
24631;SDS011;59977;48.782;9.190;2023-02-13T00:56:20;28.30;;;15.82;;
24631;SDS011;59977;48.782;9.190;2023-02-13T00:58:45;26.55;;;14.38;;
24631;SDS011;59977;48.782;9.190;2023-02-13T01:01:11;28.52;;;15.73;;
24631;SDS011;59977;48.782;9.190;2023-02-13T01:03:37;30.98;;;16.55;;
24631;SDS011;59977;48.782;9.190;2023-02-13T01:06:02;38.42;;;19.17;;
24631;SDS011;59977;48.782;9.190;2023-02-13T01:08:28;32.70;;;16.25;;
24631;SDS011;59977;48.782;9.190;2023-02-13T01:10:54;26.25;;;15.63;;
24631;SDS011;59977;48.782;9.190;2023-02-13T01:13:20;31.25;;;16.20;;
24631;SDS011;59977;48.782;9.190;2023-02-13T01:15:46;29.60;;;15.50;;
24631;SDS011;59977;48.782;9.190;2023-02-13T01:18:13;33.28;;;16.75;;
24631;SDS011;59977;48.782;9.190;2023-02-13T01:20:40;30.90;;;17.27;;
24631;SDS011;59977;48.782;9.190;2023-02-13T01:23:07;32.15;;;16.15;;
24631;SDS011;59977;48.782;9.190;2023-02-13T01:25:33;34.15;;;17.65;;
24631;SDS011;59977;48.782;9.190;2023-02-13T01:27:59;34.00;;;18.13;;
24631;SDS011;59977;48.782;9.190;2023-02-13T01:30:25;32.30;;;17.55;;
24631;SDS011;59977;48.782;9.190;2023-02-13T01:32:50;34.75;;;17.48;;
24631;SDS011;59977;48.782;9.190;2023-02-13T01:35:16;34.05;;;17.92;;
24631;SDS011;59977;48.782;9.190;2023-02-13T01:37:42;36.53;;;17.02;;
24631;SDS011;59977;48.782;9.190;2023-02-13T01:40:10;34.95;;;18.52;;
24631;SDS011;59977;48.782;9.190;2023-02-13T01:42:37;36.03;;;17.85;;
24631;SDS011;59977;48.782;9.190;2023-02-13T01:45:14;38.38;;;18.25;;
24631;SDS011;59977;48.782;9.190;2023-02-13T01:47:48;40.55;;;19.02;;
24631;SDS011;59977;48.782;9.190;2023-02-13T01:50:40;40.35;;;19.42;;
24631;SDS011;59977;48.782;9.190;2023-02-13T01:53:10;40.58;;;18.65;;
24631;SDS011;59977;48.782;9.190;2023-02-13T01:55:48;38.53;;;18.27;;
24631;SDS011;59977;48.782;9.190;2023-02-13T01:58:18;31.50;;;17.15;;
24631;SDS011;59977;48.782;9.190;2023-02-13T02:00:48;30.55;;;16.48;;
24631;SDS011;59977;48.782;9.190;2023-02-13T02:03:30;30.00;;;16.35;;
24631;SDS011;59977;48.782;9.190;2023-02-13T02:06:03;36.65;;;16.25;;
24631;SDS011;59977;48.782;9.190;2023-02-13T02:08:31;38.95;;;17.75;;
24631;SDS011;59977;48.782;9.190;2023-02-13T02:11:00;36.80;;;17.75;;
24631;SDS011;59977;48.782;9.190;2023-02-13T02:13:30;34.30;;;16.55;;
24631;SDS011;59977;48.782;9.190;2023-02-13T02:15:56;33.75;;;16.40;;
24631;SDS011;59977;48.782;9.190;2023-02-13T02:18:22;31.42;;;15.98;;
24631;SDS011;59977;48.782;9.190;2023-02-13T02:21:02;35.63;;;17.13;;
24631;SDS011;59977;48.782;9.190;2023-02-13T02:29:19;29.70;;;16.02;;
24631;SDS011;59977;48.782;9.190;2023-02-13T02:31:59;36.85;;;16.60;;
24631;SDS011;59977;48.782;9.190;2023-02-13T02:34:53;33.20;;;16.02;;
24631;SDS011;59977;48.782;9.190;2023-02-13T02:38:44;33.22;;;17.35;;
24631;SDS011;59977;48.782;9.190;2023-02-13T02:41:14;32.58;;;16.50;;
24631;SDS011;59977;48.782;9.190;2023-02-13T02:44:01;32.20;;;17.05;;
24631;SDS011;59977;48.782;9.190;2023-02-13T02:47:31;36.40;;;17.25;;
24631;SDS011;59977;48.782;9.190;2023-02-13T02:55:26;32.13;;;17.92;;
24631;SDS011;59977;48.782;9.190;2023-02-13T03:00:48;40.15;;;18.65;;
24631;SDS011;59977;48.782;9.190;2023-02-13T03:03:34;41.05;;;18.95;;
24631;SDS011;59977;48.782;9.190;2023-02-13T03:06:23;38.47;;;17.83;;
24631;SDS011;59977;48.782;9.190;2023-02-13T03:08:57;35.80;;;17.63;;
24631;SDS011;59977;48.782;9.190;2023-02-13T03:11:44;35.58;;;17.88;;
24631;SDS011;59977;48.782;9.190;2023-02-13T03:14:32;42.20;;;18.13;;
24631;SDS011;59977;48.782;9.190;2023-02-13T03:16:58;38.10;;;17.83;;
24631;SDS011;59977;48.782;9.190;2023-02-13T03:23:11;35.92;;;18.00;;
24631;SDS011;59977;48.782;9.190;2023-02-13T03:25:45;36.88;;;16.90;;
24631;SDS011;59977;48.782;9.190;2023-02-13T03:28:22;32.38;;;17.20;;
24631;SDS011;59977;48.782;9.190;2023-02-13T03:31:51;36.38;;;17.95;;
24631;SDS011;59977;48.782;9.190;2023-02-13T03:34:25;41.03;;;18.23;;
24631;SDS011;59977;48.782;9.190;2023-02-13T03:37:15;39.00;;;19.05;;
24631;SDS011;59977;48.782;9.190;2023-02-13T03:40:06;39.70;;;18.90;;
24631;SDS011;59977;48.782;9.190;2023-02-13T03:42:41;42.15;;;20.15;;
24631;SDS011;59977;48.782;9.190;2023-02-13T03:45:33;44.38;;;20.67;;
24631;SDS011;59977;48.782;9.190;2023-02-13T03:48:25;42.30;;;20.48;;
24631;SDS011;59977;48.782;9.190;2023-02-13T03:51:15;45.25;;;21.58;;
24631;SDS011;59977;48.782;9.190;2023-02-13T03:53:45;43.67;;;21.30;;
24631;SDS011;59977;48.782;9.190;2023-02-13T03:56:15;44.78;;;21.63;;
24631;SDS011;59977;48.782;9.190;2023-02-13T03:59:03;41.45;;;20.88;;
24631;SDS011;59977;48.782;9.190;2023-02-13T04:01:43;42.17;;;20.38;;
24631;SDS011;59977;48.782;9.190;2023-02-13T04:04:20;44.13;;;20.65;;
24631;SDS011;59977;48.782;9.190;2023-02-13T04:06:56;42.85;;;19.00;;
24631;SDS011;59977;48.782;9.190;2023-02-13T04:09:27;39.85;;;19.45;;
24631;SDS011;59977;48.782;9.190;2023-02-13T04:12:01;35.58;;;18.60;;
24631;SDS011;59977;48.782;9.190;2023-02-13T04:17:11;37.88;;;17.30;;
24631;SDS011;59977;48.782;9.190;2023-02-13T04:19:41;35.47;;;17.65;;
24631;SDS011;59977;48.782;9.190;2023-02-13T04:22:07;36.38;;;17.40;;
24631;SDS011;59977;48.782;9.190;2023-02-13T04:24:35;43.10;;;19.05;;
24631;SDS011;59977;48.782;9.190;2023-02-13T04:27:01;37.17;;;18.65;;
24631;SDS011;59977;48.782;9.190;2023-02-13T04:29:27;35.63;;;17.60;;
24631;SDS011;59977;48.782;9.190;2023-02-13T04:31:52;32.40;;;16.27;;
24631;SDS011;59977;48.782;9.190;2023-02-13T04:34:18;38.30;;;17.00;;
24631;SDS011;59977;48.782;9.190;2023-02-13T04:36:44;38.67;;;17.48;;
24631;SDS011;59977;48.782;9.190;2023-02-13T04:39:09;35.17;;;16.45;;
24631;SDS011;59977;48.782;9.190;2023-02-13T04:41:36;30.08;;;16.63;;
24631;SDS011;59977;48.782;9.190;2023-02-13T04:44:02;38.03;;;17.67;;
24631;SDS011;59977;48.782;9.190;2023-02-13T04:46:27;36.25;;;17.10;;
24631;SDS011;59977;48.782;9.190;2023-02-13T04:48:53;37.03;;;17.10;;
24631;SDS011;59977;48.782;9.190;2023-02-13T04:51:19;32.72;;;16.05;;
24631;SDS011;59977;48.782;9.190;2023-02-13T04:53:45;36.50;;;18.23;;
24631;SDS011;59977;48.782;9.190;2023-02-13T04:56:11;35.35;;;16.60;;
24631;SDS011;59977;48.782;9.190;2023-02-13T04:58:36;37.95;;;17.55;;
24631;SDS011;59977;48.782;9.190;2023-02-13T05:01:09;29.88;;;17.50;;
24631;SDS011;59977;48.782;9.190;2023-02-13T05:03:36;35.42;;;17.30;;
24631;SDS011;59977;48.782;9.190;2023-02-13T05:06:01;33.80;;;17.20;;
24631;SDS011;59977;48.782;9.190;2023-02-13T05:08:27;38.17;;;17.45;;
24631;SDS011;59977;48.782;9.190;2023-02-13T05:10:52;36.75;;;17.23;;
24631;SDS011;59977;48.782;9.190;2023-02-13T05:13:18;33.05;;;17.23;;
24631;SDS011;59977;48.782;9.190;2023-02-13T05:15:46;34.33;;;17.55;;
24631;SDS011;59977;48.782;9.190;2023-02-13T05:18:12;36.75;;;17.80;;
24631;SDS011;59977;48.782;9.190;2023-02-13T05:20:37;39.90;;;18.05;;
24631;SDS011;59977;48.782;9.190;2023-02-13T05:23:03;34.30;;;17.08;;
24631;SDS011;59977;48.782;9.190;2023-02-13T05:25:47;34.55;;;17.70;;
24631;SDS011;59977;48.782;9.190;2023-02-13T05:28:12;36.67;;;16.70;;
24631;SDS011;59977;48.782;9.190;2023-02-13T05:30:57;37.88;;;17.95;;
24631;SDS011;59977;48.782;9.190;2023-02-13T05:33:22;40.17;;;17.20;;
24631;SDS011;59977;48.782;9.190;2023-02-13T05:35:48;34.72;;;17.42;;
24631;SDS011;59977;48.782;9.190;2023-02-13T05:38:13;34.72;;;17.67;;
24631;SDS011;59977;48.782;9.190;2023-02-13T05:40:39;39.60;;;18.63;;
24631;SDS011;59977;48.782;9.190;2023-02-13T05:43:05;38.95;;;19.50;;
24631;SDS011;59977;48.782;9.190;2023-02-13T05:45:30;40.30;;;19.13;;
24631;SDS011;59977;48.782;9.190;2023-02-13T05:47:56;40.33;;;19.17;;
24631;SDS011;59977;48.782;9.190;2023-02-13T05:50:21;53.75;;;20.40;;
24631;SDS011;59977;48.782;9.190;2023-02-13T05:52:47;41.92;;;19.60;;
24631;SDS011;59977;48.782;9.190;2023-02-13T05:55:12;37.05;;;18.45;;
24631;SDS011;59977;48.782;9.190;2023-02-13T05:57:38;35.55;;;16.58;;
24631;SDS011;59977;48.782;9.190;2023-02-13T06:00:04;36.95;;;17.63;;
24631;SDS011;59977;48.782;9.190;2023-02-13T06:02:30;38.15;;;17.27;;
24631;SDS011;59977;48.782;9.190;2023-02-13T06:04:56;38.88;;;18.50;;
24631;SDS011;59977;48.782;9.190;2023-02-13T06:07:21;40.90;;;18.90;;
24631;SDS011;59977;48.782;9.190;2023-02-13T06:09:47;42.20;;;17.58;;
24631;SDS011;59977;48.782;9.190;2023-02-13T06:12:12;33.22;;;16.45;;
24631;SDS011;59977;48.782;9.190;2023-02-13T06:14:38;34.50;;;16.95;;
24631;SDS011;59977;48.782;9.190;2023-02-13T06:17:03;32.08;;;16.75;;
24631;SDS011;59977;48.782;9.190;2023-02-13T06:19:29;50.03;;;17.58;;
24631;SDS011;59977;48.782;9.190;2023-02-13T06:21:54;41.75;;;16.88;;
24631;SDS011;59977;48.782;9.190;2023-02-13T06:24:20;31.55;;;16.52;;
24631;SDS011;59977;48.782;9.190;2023-02-13T06:26:46;36.63;;;16.60;;
24631;SDS011;59977;48.782;9.190;2023-02-13T06:29:11;33.72;;;16.08;;
24631;SDS011;59977;48.782;9.190;2023-02-13T06:31:37;40.00;;;18.58;;
24631;SDS011;59977;48.782;9.190;2023-02-13T06:34:03;42.80;;;18.38;;
24631;SDS011;59977;48.782;9.190;2023-02-13T06:36:29;44.22;;;20.65;;
24631;SDS011;59977;48.782;9.190;2023-02-13T06:38:55;37.25;;;19.08;;
24631;SDS011;59977;48.782;9.190;2023-02-13T06:41:20;41.85;;;19.35;;
24631;SDS011;59977;48.782;9.190;2023-02-13T06:43:46;43.08;;;20.27;;
24631;SDS011;59977;48.782;9.190;2023-02-13T06:46:12;43.80;;;19.70;;
24631;SDS011;59977;48.782;9.190;2023-02-13T06:48:37;41.88;;;18.83;;
24631;SDS011;59977;48.782;9.190;2023-02-13T06:51:03;36.40;;;17.25;;
24631;SDS011;59977;48.782;9.190;2023-02-13T06:53:29;32.42;;;17.23;;
24631;SDS011;59977;48.782;9.190;2023-02-13T06:55:55;35.17;;;17.58;;
24631;SDS011;59977;48.782;9.190;2023-02-13T06:58:21;37.38;;;18.75;;
24631;SDS011;59977;48.782;9.190;2023-02-13T07:00:49;36.00;;;17.13;;
24631;SDS011;59977;48.782;9.190;2023-02-13T07:03:15;35.72;;;17.33;;
24631;SDS011;59977;48.782;9.190;2023-02-13T07:05:42;37.53;;;17.23;;
24631;SDS011;59977;48.782;9.190;2023-02-13T07:08:08;34.40;;;16.25;;
24631;SDS011;59977;48.782;9.190;2023-02-13T07:10:41;40.28;;;17.90;;
24631;SDS011;59977;48.782;9.190;2023-02-13T07:13:07;40.13;;;18.13;;
24631;SDS011;59977;48.782;9.190;2023-02-13T07:15:34;42.97;;;19.85;;
24631;SDS011;59977;48.782;9.190;2023-02-13T07:18:00;47.85;;;20.45;;
24631;SDS011;59977;48.782;9.190;2023-02-13T07:20:26;53.60;;;20.63;;
24631;SDS011;59977;48.782;9.190;2023-02-13T07:22:52;55.55;;;21.05;;
24631;SDS011;59977;48.782;9.190;2023-02-13T07:25:21;53.40;;;22.00;;
24631;SDS011;59977;48.782;9.190;2023-02-13T07:27:47;55.03;;;22.30;;
24631;SDS011;59977;48.782;9.190;2023-02-13T07:30:13;53.15;;;21.98;;
24631;SDS011;59977;48.782;9.190;2023-02-13T07:32:38;53.22;;;21.77;;
24631;SDS011;59977;48.782;9.190;2023-02-13T07:35:04;54.80;;;22.52;;
24631;SDS011;59977;48.782;9.190;2023-02-13T07:37:30;58.72;;;22.80;;
24631;SDS011;59977;48.782;9.190;2023-02-13T07:39:56;55.83;;;22.42;;
24631;SDS011;59977;48.782;9.190;2023-02-13T07:42:22;57.33;;;22.05;;
24631;SDS011;59977;48.782;9.190;2023-02-13T07:44:47;55.38;;;22.83;;
24631;SDS011;59977;48.782;9.190;2023-02-13T07:47:13;49.58;;;22.15;;
24631;SDS011;59977;48.782;9.190;2023-02-13T07:49:38;51.58;;;22.13;;
24631;SDS011;59977;48.782;9.190;2023-02-13T07:52:04;51.30;;;22.02;;
24631;SDS011;59977;48.782;9.190;2023-02-13T07:54:30;47.25;;;21.83;;
24631;SDS011;59977;48.782;9.190;2023-02-13T07:56:56;50.97;;;22.98;;
24631;SDS011;59977;48.782;9.190;2023-02-13T07:59:22;48.95;;;22.17;;
24631;SDS011;59977;48.782;9.190;2023-02-13T08:01:48;51.80;;;22.55;;
24631;SDS011;59977;48.782;9.190;2023-02-13T08:04:14;55.90;;;23.65;;
24631;SDS011;59977;48.782;9.190;2023-02-13T08:06:39;53.42;;;22.85;;
24631;SDS011;59977;48.782;9.190;2023-02-13T08:09:05;56.72;;;23.20;;
24631;SDS011;59977;48.782;9.190;2023-02-13T08:11:51;52.30;;;21.80;;
24631;SDS011;59977;48.782;9.190;2023-02-13T08:14:18;50.53;;;22.27;;
24631;SDS011;59977;48.782;9.190;2023-02-13T08:16:48;47.75;;;23.50;;
24631;SDS011;59977;48.782;9.190;2023-02-13T08:19:13;41.35;;;21.73;;
24631;SDS011;59977;48.782;9.190;2023-02-13T08:21:39;48.55;;;23.58;;
24631;SDS011;59977;48.782;9.190;2023-02-13T08:24:05;47.65;;;22.90;;
24631;SDS011;59977;48.782;9.190;2023-02-13T08:26:31;48.50;;;23.35;;
24631;SDS011;59977;48.782;9.190;2023-02-13T08:28:57;51.17;;;22.25;;
24631;SDS011;59977;48.782;9.190;2023-02-13T08:31:23;54.95;;;23.15;;
24631;SDS011;59977;48.782;9.190;2023-02-13T08:33:48;51.70;;;23.30;;
24631;SDS011;59977;48.782;9.190;2023-02-13T08:36:14;45.55;;;21.65;;
24631;SDS011;59977;48.782;9.190;2023-02-13T08:38:40;42.95;;;22.55;;
24631;SDS011;59977;48.782;9.190;2023-02-13T08:41:06;44.60;;;22.38;;
24631;SDS011;59977;48.782;9.190;2023-02-13T08:43:32;46.10;;;22.02;;
24631;SDS011;59977;48.782;9.190;2023-02-13T08:45:58;44.28;;;21.92;;
24631;SDS011;59977;48.782;9.190;2023-02-13T08:48:25;42.42;;;20.83;;
24631;SDS011;59977;48.782;9.190;2023-02-13T08:50:51;41.85;;;21.00;;
24631;SDS011;59977;48.782;9.190;2023-02-13T08:53:17;42.40;;;21.65;;
24631;SDS011;59977;48.782;9.190;2023-02-13T08:55:50;39.88;;;19.80;;
24631;SDS011;59977;48.782;9.190;2023-02-13T08:58:19;39.72;;;20.40;;
24631;SDS011;59977;48.782;9.190;2023-02-13T09:00:45;42.95;;;20.02;;
24631;SDS011;59977;48.782;9.190;2023-02-13T09:03:11;39.80;;;20.52;;
24631;SDS011;59977;48.782;9.190;2023-02-13T09:05:36;34.13;;;19.17;;
24631;SDS011;59977;48.782;9.190;2023-02-13T09:08:02;34.25;;;18.73;;
24631;SDS011;59977;48.782;9.190;2023-02-13T09:10:29;44.28;;;19.33;;
24631;SDS011;59977;48.782;9.190;2023-02-13T09:12:56;31.52;;;18.65;;
24631;SDS011;59977;48.782;9.190;2023-02-13T09:15:21;33.22;;;17.42;;
24631;SDS011;59977;48.782;9.190;2023-02-13T09:17:47;34.53;;;17.67;;
24631;SDS011;59977;48.782;9.190;2023-02-13T09:20:12;31.02;;;17.30;;
24631;SDS011;59977;48.782;9.190;2023-02-13T09:22:39;34.25;;;17.90;;
24631;SDS011;59977;48.782;9.190;2023-02-13T09:25:05;31.10;;;17.25;;
24631;SDS011;59977;48.782;9.190;2023-02-13T09:27:31;31.98;;;17.73;;
24631;SDS011;59977;48.782;9.190;2023-02-13T09:29:58;26.35;;;16.58;;
24631;SDS011;59977;48.782;9.190;2023-02-13T09:32:24;30.33;;;15.88;;
24631;SDS011;59977;48.782;9.190;2023-02-13T09:34:50;27.50;;;15.18;;
24631;SDS011;59977;48.782;9.190;2023-02-13T09:37:16;31.08;;;16.45;;
24631;SDS011;59977;48.782;9.190;2023-02-13T09:39:42;30.60;;;15.65;;
24631;SDS011;59977;48.782;9.190;2023-02-13T09:42:18;29.35;;;16.33;;
24631;SDS011;59977;48.782;9.190;2023-02-13T09:44:49;31.38;;;15.48;;
24631;SDS011;59977;48.782;9.190;2023-02-13T09:49:53;26.67;;;12.38;;
24631;SDS011;59977;48.782;9.190;2023-02-13T09:52:27;33.97;;;12.77;;
24631;SDS011;59977;48.782;9.190;2023-02-13T09:54:57;20.60;;;12.23;;
24631;SDS011;59977;48.782;9.190;2023-02-13T09:57:32;19.00;;;12.38;;
24631;SDS011;59977;48.782;9.190;2023-02-13T10:00:05;20.77;;;11.85;;
24631;SDS011;59977;48.782;9.190;2023-02-13T10:16:42;26.25;;;12.90;;
24631;SDS011;59977;48.782;9.190;2023-02-13T10:22:08;23.70;;;12.63;;
24631;SDS011;59977;48.782;9.190;2023-02-13T10:27:22;24.45;;;12.90;;
24631;SDS011;59977;48.782;9.190;2023-02-13T10:30:25;25.13;;;12.23;;
24631;SDS011;59977;48.782;9.190;2023-02-13T10:32:58;19.58;;;12.40;;
24631;SDS011;59977;48.782;9.190;2023-02-13T10:36:08;29.73;;;12.65;;
24631;SDS011;59977;48.782;9.190;2023-02-13T10:38:34;21.40;;;12.02;;
24631;SDS011;59977;48.782;9.190;2023-02-13T10:41:24;29.52;;;12.25;;
24631;SDS011;59977;48.782;9.190;2023-02-13T10:44:11;25.35;;;11.77;;
24631;SDS011;59977;48.782;9.190;2023-02-13T10:46:44;17.00;;;10.55;;
24631;SDS011;59977;48.782;9.190;2023-02-13T11:00:40;13.75;;;9.80;;
24631;SDS011;59977;48.782;9.190;2023-02-13T11:03:19;13.63;;;9.10;;
24631;SDS011;59977;48.782;9.190;2023-02-13T11:05:47;14.77;;;9.30;;
24631;SDS011;59977;48.782;9.190;2023-02-13T11:08:37;18.83;;;9.65;;
24631;SDS011;59977;48.782;9.190;2023-02-13T11:11:04;14.95;;;9.02;;
24631;SDS011;59977;48.782;9.190;2023-02-13T11:17:20;14.65;;;8.95;;
24631;SDS011;59977;48.782;9.190;2023-02-13T11:19:46;12.27;;;7.93;;
24631;SDS011;59977;48.782;9.190;2023-02-13T11:25:01;12.02;;;8.15;;
24631;SDS011;59977;48.782;9.190;2023-02-13T11:27:34;12.07;;;7.93;;
24631;SDS011;59977;48.782;9.190;2023-02-13T11:30:06;17.80;;;8.13;;
24631;SDS011;59977;48.782;9.190;2023-02-13T11:32:56;17.33;;;8.00;;
24631;SDS011;59977;48.782;9.190;2023-02-13T11:35:26;13.13;;;7.68;;
24631;SDS011;59977;48.782;9.190;2023-02-13T11:41:02;15.50;;;7.65;;
24631;SDS011;59977;48.782;9.190;2023-02-13T11:43:32;15.00;;;7.80;;
24631;SDS011;59977;48.782;9.190;2023-02-13T11:48:28;13.38;;;7.53;;
24631;SDS011;59977;48.782;9.190;2023-02-13T11:50:54;11.88;;;8.00;;
24631;SDS011;59977;48.782;9.190;2023-02-13T11:53:26;11.98;;;8.05;;
24631;SDS011;59977;48.782;9.190;2023-02-13T11:56:06;11.85;;;7.55;;
24631;SDS011;59977;48.782;9.190;2023-02-13T11:58:39;14.30;;;7.65;;
24631;SDS011;59977;48.782;9.190;2023-02-13T12:01:10;11.05;;;7.53;;
24631;SDS011;59977;48.782;9.190;2023-02-13T12:04:12;11.90;;;8.25;;
24631;SDS011;59977;48.782;9.190;2023-02-13T12:06:40;14.48;;;7.50;;
24631;SDS011;59977;48.782;9.190;2023-02-13T12:09:21;14.23;;;8.45;;
24631;SDS011;59977;48.782;9.190;2023-02-13T12:11:51;14.05;;;8.30;;
24631;SDS011;59977;48.782;9.190;2023-02-13T12:14:26;10.32;;;7.43;;
24631;SDS011;59977;48.782;9.190;2023-02-13T12:16:59;11.57;;;7.43;;
24631;SDS011;59977;48.782;9.190;2023-02-13T12:19:32;13.68;;;7.88;;
24631;SDS011;59977;48.782;9.190;2023-02-13T12:28:08;14.18;;;8.63;;
24631;SDS011;59977;48.782;9.190;2023-02-13T12:50:01;13.75;;;8.23;;
24631;SDS011;59977;48.782;9.190;2023-02-13T13:08:30;16.83;;;8.43;;
24631;SDS011;59977;48.782;9.190;2023-02-13T13:13:49;11.95;;;8.13;;
24631;SDS011;59977;48.782;9.190;2023-02-13T13:19:18;13.75;;;8.45;;
24631;SDS011;59977;48.782;9.190;2023-02-13T13:22:01;16.35;;;7.88;;
24631;SDS011;59977;48.782;9.190;2023-02-13T13:27:35;17.27;;;9.10;;
24631;SDS011;59977;48.782;9.190;2023-02-13T13:30:21;12.80;;;8.82;;
24631;SDS011;59977;48.782;9.190;2023-02-13T13:32:56;15.52;;;8.52;;
24631;SDS011;59977;48.782;9.190;2023-02-13T13:35:26;14.50;;;8.20;;
24631;SDS011;59977;48.782;9.190;2023-02-13T13:38:00;11.73;;;8.18;;
24631;SDS011;59977;48.782;9.190;2023-02-13T13:49:17;13.93;;;8.23;;
24631;SDS011;59977;48.782;9.190;2023-02-13T13:52:17;12.60;;;8.35;;
24631;SDS011;59977;48.782;9.190;2023-02-13T13:54:45;16.25;;;8.15;;
24631;SDS011;59977;48.782;9.190;2023-02-13T13:57:15;12.52;;;8.20;;
24631;SDS011;59977;48.782;9.190;2023-02-13T14:05:27;12.40;;;7.80;;
24631;SDS011;59977;48.782;9.190;2023-02-13T14:07:47;10.75;;;8.02;;
24631;SDS011;59977;48.782;9.190;2023-02-13T14:12:58;10.77;;;7.78;;
24631;SDS011;59977;48.782;9.190;2023-02-13T14:17:58;11.27;;;7.57;;
24631;SDS011;59977;48.782;9.190;2023-02-13T14:20:35;10.40;;;7.30;;
24631;SDS011;59977;48.782;9.190;2023-02-13T14:25:39;10.90;;;7.28;;
24631;SDS011;59977;48.782;9.190;2023-02-13T14:28:04;12.85;;;8.02;;
24631;SDS011;59977;48.782;9.190;2023-02-13T14:30:32;10.98;;;7.10;;
24631;SDS011;59977;48.782;9.190;2023-02-13T14:33:04;10.23;;;7.22;;
24631;SDS011;59977;48.782;9.190;2023-02-13T14:35:33;12.60;;;7.10;;
24631;SDS011;59977;48.782;9.190;2023-02-13T14:38:02;13.60;;;7.38;;
24631;SDS011;59977;48.782;9.190;2023-02-13T14:40:43;10.55;;;7.55;;
24631;SDS011;59977;48.782;9.190;2023-02-13T14:45:57;10.25;;;7.47;;
24631;SDS011;59977;48.782;9.190;2023-02-13T14:48:51;12.13;;;7.10;;
24631;SDS011;59977;48.782;9.190;2023-02-13T14:51:31;10.57;;;7.88;;
24631;SDS011;59977;48.782;9.190;2023-02-13T14:54:15;10.20;;;7.85;;
24631;SDS011;59977;48.782;9.190;2023-02-13T14:56:50;13.82;;;7.68;;
24631;SDS011;59977;48.782;9.190;2023-02-13T14:59:20;8.98;;;6.82;;
24631;SDS011;59977;48.782;9.190;2023-02-13T15:01:59;10.90;;;7.38;;
24631;SDS011;59977;48.782;9.190;2023-02-13T15:05:16;13.75;;;8.00;;
24631;SDS011;59977;48.782;9.190;2023-02-13T15:07:36;12.38;;;7.07;;
24631;SDS011;59977;48.782;9.190;2023-02-13T15:12:56;15.88;;;6.88;;
24631;SDS011;59977;48.782;9.190;2023-02-13T15:15:27;13.07;;;7.32;;
24631;SDS011;59977;48.782;9.190;2023-02-13T15:18:10;12.90;;;7.43;;
24631;SDS011;59977;48.782;9.190;2023-02-13T15:20:44;9.52;;;7.13;;
24631;SDS011;59977;48.782;9.190;2023-02-13T15:23:17;11.02;;;7.25;;
24631;SDS011;59977;48.782;9.190;2023-02-13T15:26:00;13.65;;;6.85;;
24631;SDS011;59977;48.782;9.190;2023-02-13T15:28:27;8.75;;;7.25;;
24631;SDS011;59977;48.782;9.190;2023-02-13T15:31:01;9.32;;;6.97;;
24631;SDS011;59977;48.782;9.190;2023-02-13T15:33:33;8.52;;;6.45;;
24631;SDS011;59977;48.782;9.190;2023-02-13T15:36:12;7.43;;;6.25;;
24631;SDS011;59977;48.782;9.190;2023-02-13T15:39:24;8.75;;;5.90;;
24631;SDS011;59977;48.782;9.190;2023-02-13T15:41:44;9.27;;;6.72;;
24631;SDS011;59977;48.782;9.190;2023-02-13T15:44:24;12.32;;;6.43;;
24631;SDS011;59977;48.782;9.190;2023-02-13T15:46:56;9.25;;;6.82;;
24631;SDS011;59977;48.782;9.190;2023-02-13T15:49:27;9.32;;;6.68;;
24631;SDS011;59977;48.782;9.190;2023-02-13T15:52:24;10.07;;;6.80;;
24631;SDS011;59977;48.782;9.190;2023-02-13T15:54:53;11.88;;;6.57;;
24631;SDS011;59977;48.782;9.190;2023-02-13T15:57:19;8.95;;;6.88;;
24631;SDS011;59977;48.782;9.190;2023-02-13T15:59:47;16.05;;;6.88;;
24631;SDS011;59977;48.782;9.190;2023-02-13T16:02:18;9.20;;;6.97;;
24631;SDS011;59977;48.782;9.190;2023-02-13T16:05:05;10.37;;;6.63;;
24631;SDS011;59977;48.782;9.190;2023-02-13T16:07:47;10.50;;;6.78;;
24631;SDS011;59977;48.782;9.190;2023-02-13T16:10:28;11.63;;;7.10;;
24631;SDS011;59977;48.782;9.190;2023-02-13T16:12:56;14.95;;;7.32;;
24631;SDS011;59977;48.782;9.190;2023-02-13T16:15:26;16.17;;;8.40;;
24631;SDS011;59977;48.782;9.190;2023-02-13T16:17:54;11.18;;;8.30;;
24631;SDS011;59977;48.782;9.190;2023-02-13T16:20:21;12.07;;;8.23;;
24631;SDS011;59977;48.782;9.190;2023-02-13T16:22:53;11.65;;;8.10;;
24631;SDS011;59977;48.782;9.190;2023-02-13T16:28:02;12.65;;;8.63;;
24631;SDS011;59977;48.782;9.190;2023-02-13T16:35:43;15.68;;;8.35;;
24631;SDS011;59977;48.782;9.190;2023-02-13T16:38:23;13.38;;;8.30;;
24631;SDS011;59977;48.782;9.190;2023-02-13T16:52:32;16.02;;;8.95;;
24631;SDS011;59977;48.782;9.190;2023-02-13T16:56:03;16.80;;;9.25;;
24631;SDS011;59977;48.782;9.190;2023-02-13T16:58:33;16.33;;;9.02;;
24631;SDS011;59977;48.782;9.190;2023-02-13T17:00:59;17.13;;;9.32;;
24631;SDS011;59977;48.782;9.190;2023-02-13T17:03:26;16.98;;;9.63;;
24631;SDS011;59977;48.782;9.190;2023-02-13T17:05:52;17.00;;;9.32;;
24631;SDS011;59977;48.782;9.190;2023-02-13T17:08:21;20.70;;;9.57;;
24631;SDS011;59977;48.782;9.190;2023-02-13T17:13:51;19.95;;;9.73;;
24631;SDS011;59977;48.782;9.190;2023-02-13T17:16:17;17.50;;;10.02;;
24631;SDS011;59977;48.782;9.190;2023-02-13T17:18:43;17.38;;;10.10;;
24631;SDS011;59977;48.782;9.190;2023-02-13T17:21:08;18.55;;;9.30;;
24631;SDS011;59977;48.782;9.190;2023-02-13T17:23:34;16.30;;;9.98;;
24631;SDS011;59977;48.782;9.190;2023-02-13T17:26:00;16.92;;;10.57;;
24631;SDS011;59977;48.782;9.190;2023-02-13T17:28:27;15.95;;;10.20;;
24631;SDS011;59977;48.782;9.190;2023-02-13T17:34:13;22.95;;;10.50;;
24631;SDS011;59977;48.782;9.190;2023-02-13T17:36:42;20.08;;;10.93;;
24631;SDS011;59977;48.782;9.190;2023-02-13T17:39:26;19.52;;;10.73;;